sensor_id;sensor_type;location;lat;lon;timestamp;P1;durP1;ratioP1;P2;durP2;ratioP2
83125;SDS011;73488;47.234;-1.540;2023-11-18T00:02:15;3.45;;;1.48;;
83125;SDS011;73488;47.234;-1.540;2023-11-18T00:05:03;3.50;;;1.35;;
83125;SDS011;73488;47.234;-1.540;2023-11-18T00:07:40;4.43;;;1.30;;
83125;SDS011;73488;47.234;-1.540;2023-11-18T00:10:15;9.15;;;1.65;;
83125;SDS011;73488;47.234;-1.540;2023-11-18T00:12:43;4.85;;;1.65;;
83125;SDS011;73488;47.234;-1.540;2023-11-18T00:15:41;4.03;;;1.42;;
83125;SDS011;73488;47.234;-1.540;2023-11-18T00:18:14;5.13;;;1.85;;
83125;SDS011;73488;47.234;-1.540;2023-11-18T00:20:40;5.68;;;1.85;;
83125;SDS011;73488;47.234;-1.540;2023-11-18T00:23:18;4.35;;;1.70;;
83125;SDS011;73488;47.234;-1.540;2023-11-18T00:25:43;5.65;;;1.42;;
83125;SDS011;73488;47.234;-1.540;2023-11-18T00:28:10;5.32;;;1.50;;
83125;SDS011;73488;47.234;-1.540;2023-11-18T00:30:50;5.40;;;1.50;;
83125;SDS011;73488;47.234;-1.540;2023-11-18T00:33:37;2.78;;;1.10;;
83125;SDS011;73488;47.234;-1.540;2023-11-18T00:37:01;6.32;;;1.63;;
83125;SDS011;73488;47.234;-1.540;2023-11-18T00:40:25;5.13;;;2.03;;
83125;SDS011;73488;47.234;-1.540;2023-11-18T00:43:49;3.25;;;1.45;;
83125;SDS011;73488;47.234;-1.540;2023-11-18T00:47:13;4.03;;;1.65;;
83125;SDS011;73488;47.234;-1.540;2023-11-18T00:50:37;3.95;;;1.92;;
83125;SDS011;73488;47.234;-1.540;2023-11-18T00:54:02;7.75;;;1.67;;
83125;SDS011;73488;47.234;-1.540;2023-11-18T00:57:26;4.68;;;1.50;;
83125;SDS011;73488;47.234;-1.540;2023-11-18T01:00:50;3.28;;;1.35;;
83125;SDS011;73488;47.234;-1.540;2023-11-18T01:04:14;3.70;;;1.45;;
83125;SDS011;73488;47.234;-1.540;2023-11-18T01:07:38;4.00;;;1.00;;
83125;SDS011;73488;47.234;-1.540;2023-11-18T01:11:03;2.60;;;1.13;;
83125;SDS011;73488;47.234;-1.540;2023-11-18T01:14:27;3.95;;;1.30;;
83125;SDS011;73488;47.234;-1.540;2023-11-18T01:17:51;2.53;;;1.00;;
83125;SDS011;73488;47.234;-1.540;2023-11-18T01:21:15;2.92;;;1.23;;
83125;SDS011;73488;47.234;-1.540;2023-11-18T01:24:39;4.70;;;1.55;;
83125;SDS011;73488;47.234;-1.540;2023-11-18T01:28:04;3.03;;;1.15;;
83125;SDS011;73488;47.234;-1.540;2023-11-18T01:31:28;3.58;;;1.17;;
83125;SDS011;73488;47.234;-1.540;2023-11-18T01:34:54;5.15;;;1.90;;
83125;SDS011;73488;47.234;-1.540;2023-11-18T01:38:20;4.32;;;1.65;;
83125;SDS011;73488;47.234;-1.540;2023-11-18T01:41:44;2.30;;;1.13;;
83125;SDS011;73488;47.234;-1.540;2023-11-18T01:45:11;2.38;;;1.42;;
83125;SDS011;73488;47.234;-1.540;2023-11-18T01:48:36;4.50;;;1.10;;
83125;SDS011;73488;47.234;-1.540;2023-11-18T01:52:09;3.63;;;1.42;;
83125;SDS011;73488;47.234;-1.540;2023-11-18T01:54:59;3.10;;;1.13;;
83125;SDS011;73488;47.234;-1.540;2023-11-18T01:57:28;6.40;;;1.35;;
83125;SDS011;73488;47.234;-1.540;2023-11-18T02:00:55;5.38;;;1.65;;
83125;SDS011;73488;47.234;-1.540;2023-11-18T02:04:24;2.92;;;1.25;;
83125;SDS011;73488;47.234;-1.540;2023-11-18T02:07:48;2.10;;;1.38;;
83125;SDS011;73488;47.234;-1.540;2023-11-18T02:11:29;2.85;;;1.13;;
83125;SDS011;73488;47.234;-1.540;2023-11-18T02:14:54;3.30;;;1.00;;
83125;SDS011;73488;47.234;-1.540;2023-11-18T02:18:21;2.58;;;1.20;;
83125;SDS011;73488;47.234;-1.540;2023-11-18T02:21:47;4.50;;;1.13;;
83125;SDS011;73488;47.234;-1.540;2023-11-18T02:25:01;2.40;;;1.13;;
83125;SDS011;73488;47.234;-1.540;2023-11-18T02:28:26;1.45;;;0.80;;
83125;SDS011;73488;47.234;-1.540;2023-11-18T02:31:57;3.50;;;1.13;;
83125;SDS011;73488;47.234;-1.540;2023-11-18T02:35:38;3.03;;;1.30;;
83125;SDS011;73488;47.234;-1.540;2023-11-18T02:39:06;3.33;;;1.00;;
83125;SDS011;73488;47.234;-1.540;2023-11-18T02:42:39;1.95;;;0.90;;
83125;SDS011;73488;47.234;-1.540;2023-11-18T02:46:05;4.57;;;1.00;;
83125;SDS011;73488;47.234;-1.540;2023-11-18T02:49:23;2.75;;;0.73;;
83125;SDS011;73488;47.234;-1.540;2023-11-18T02:52:49;2.17;;;1.30;;
83125;SDS011;73488;47.234;-1.540;2023-11-18T02:55:28;3.00;;;1.05;;
83125;SDS011;73488;47.234;-1.540;2023-11-18T02:57:53;3.53;;;0.80;;
83125;SDS011;73488;47.234;-1.540;2023-11-18T03:00:19;1.83;;;0.82;;
83125;SDS011;73488;47.234;-1.540;2023-11-18T03:02:47;2.13;;;1.00;;
83125;SDS011;73488;47.234;-1.540;2023-11-18T03:05:16;1.83;;;0.80;;
83125;SDS011;73488;47.234;-1.540;2023-11-18T03:10:20;3.67;;;1.10;;
83125;SDS011;73488;47.234;-1.540;2023-11-18T03:12:48;3.20;;;1.13;;
83125;SDS011;73488;47.234;-1.540;2023-11-18T03:15:49;5.30;;;0.90;;
83125;SDS011;73488;47.234;-1.540;2023-11-18T03:18:49;2.28;;;0.98;;
83125;SDS011;73488;47.234;-1.540;2023-11-18T03:22:15;3.75;;;0.95;;
83125;SDS011;73488;47.234;-1.540;2023-11-18T03:25:39;1.90;;;0.80;;
83125;SDS011;73488;47.234;-1.540;2023-11-18T03:29:00;2.50;;;0.98;;
83125;SDS011;73488;47.234;-1.540;2023-11-18T03:32:24;4.95;;;1.20;;
83125;SDS011;73488;47.234;-1.540;2023-11-18T03:34:58;2.83;;;1.05;;
83125;SDS011;73488;47.234;-1.540;2023-11-18T03:37:25;1.77;;;1.27;;
83125;SDS011;73488;47.234;-1.540;2023-11-18T03:39:51;3.67;;;1.10;;
83125;SDS011;73488;47.234;-1.540;2023-11-18T03:42:17;3.53;;;0.80;;
83125;SDS011;73488;47.234;-1.540;2023-11-18T03:44:43;4.20;;;1.25;;
83125;SDS011;73488;47.234;-1.540;2023-11-18T03:47:10;1.50;;;1.05;;
83125;SDS011;73488;47.234;-1.540;2023-11-18T03:49:36;2.30;;;1.05;;
83125;SDS011;73488;47.234;-1.540;2023-11-18T03:52:15;2.83;;;1.08;;
83125;SDS011;73488;47.234;-1.540;2023-11-18T03:55:39;3.10;;;0.82;;
83125;SDS011;73488;47.234;-1.540;2023-11-18T03:58:06;4.20;;;1.33;;
83125;SDS011;73488;47.234;-1.540;2023-11-18T04:00:34;2.38;;;1.27;;
83125;SDS011;73488;47.234;-1.540;2023-11-18T04:03:13;3.33;;;1.08;;
83125;SDS011;73488;47.234;-1.540;2023-11-18T04:05:53;2.55;;;0.90;;
83125;SDS011;73488;47.234;-1.540;2023-11-18T04:08:18;2.33;;;1.02;;
83125;SDS011;73488;47.234;-1.540;2023-11-18T04:10:44;1.90;;;1.20;;
83125;SDS011;73488;47.234;-1.540;2023-11-18T04:13:09;1.80;;;1.13;;
83125;SDS011;73488;47.234;-1.540;2023-11-18T04:15:34;4.20;;;0.80;;
83125;SDS011;73488;47.234;-1.540;2023-11-18T04:18:01;2.65;;;0.90;;
83125;SDS011;73488;47.234;-1.540;2023-11-18T04:20:26;4.20;;;1.27;;
83125;SDS011;73488;47.234;-1.540;2023-11-18T04:23:50;2.83;;;1.00;;
83125;SDS011;73488;47.234;-1.540;2023-11-18T04:26:31;3.45;;;1.00;;
83125;SDS011;73488;47.234;-1.540;2023-11-18T04:28:57;2.70;;;0.80;;
83125;SDS011;73488;47.234;-1.540;2023-11-18T04:31:24;4.28;;;1.08;;
83125;SDS011;73488;47.234;-1.540;2023-11-18T04:33:50;2.30;;;0.98;;
83125;SDS011;73488;47.234;-1.540;2023-11-18T04:36:15;1.55;;;0.70;;
83125;SDS011;73488;47.234;-1.540;2023-11-18T04:39:39;3.60;;;0.65;;
83125;SDS011;73488;47.234;-1.540;2023-11-18T04:42:11;2.38;;;0.98;;
83125;SDS011;73488;47.234;-1.540;2023-11-18T04:44:36;2.25;;;1.05;;
83125;SDS011;73488;47.234;-1.540;2023-11-18T04:47:03;3.40;;;1.00;;
83125;SDS011;73488;47.234;-1.540;2023-11-18T04:49:33;4.20;;;1.05;;
83125;SDS011;73488;47.234;-1.540;2023-11-18T04:52:00;2.22;;;0.75;;
83125;SDS011;73488;47.234;-1.540;2023-11-18T04:54:26;4.38;;;0.98;;
83125;SDS011;73488;47.234;-1.540;2023-11-18T04:56:53;3.67;;;0.85;;
83125;SDS011;73488;47.234;-1.540;2023-11-18T04:59:35;1.88;;;0.90;;
83125;SDS011;73488;47.234;-1.540;2023-11-18T05:02:35;5.40;;;0.90;;
83125;SDS011;73488;47.234;-1.540;2023-11-18T05:05:00;3.15;;;1.02;;
83125;SDS011;73488;47.234;-1.540;2023-11-18T05:07:26;3.13;;;0.70;;
83125;SDS011;73488;47.234;-1.540;2023-11-18T05:09:53;3.50;;;0.95;;
83125;SDS011;73488;47.234;-1.540;2023-11-18T05:12:22;4.05;;;0.93;;
83125;SDS011;73488;47.234;-1.540;2023-11-18T05:14:54;3.42;;;0.95;;
83125;SDS011;73488;47.234;-1.540;2023-11-18T05:17:21;1.75;;;0.82;;
83125;SDS011;73488;47.234;-1.540;2023-11-18T05:19:47;3.33;;;0.68;;
83125;SDS011;73488;47.234;-1.540;2023-11-18T05:22:13;2.55;;;0.82;;
83125;SDS011;73488;47.234;-1.540;2023-11-18T05:25:39;3.35;;;1.25;;
83125;SDS011;73488;47.234;-1.540;2023-11-18T05:29:03;2.10;;;0.85;;
83125;SDS011;73488;47.234;-1.540;2023-11-18T05:32:28;3.58;;;1.00;;
83125;SDS011;73488;47.234;-1.540;2023-11-18T05:35:53;3.30;;;0.77;;
83125;SDS011;73488;47.234;-1.540;2023-11-18T05:39:22;1.17;;;0.80;;
83125;SDS011;73488;47.234;-1.540;2023-11-18T05:42:47;3.60;;;0.68;;
83125;SDS011;73488;47.234;-1.540;2023-11-18T05:46:16;1.63;;;0.77;;
83125;SDS011;73488;47.234;-1.540;2023-11-18T05:49:41;1.92;;;0.77;;
83125;SDS011;73488;47.234;-1.540;2023-11-18T05:52:20;4.47;;;0.93;;
83125;SDS011;73488;47.234;-1.540;2023-11-18T05:55:44;2.60;;;0.75;;
83125;SDS011;73488;47.234;-1.540;2023-11-18T05:58:10;2.63;;;0.70;;
83125;SDS011;73488;47.234;-1.540;2023-11-18T06:00:36;1.17;;;0.52;;
83125;SDS011;73488;47.234;-1.540;2023-11-18T06:03:01;1.83;;;0.70;;
83125;SDS011;73488;47.234;-1.540;2023-11-18T06:05:27;4.80;;;0.93;;
83125;SDS011;73488;47.234;-1.540;2023-11-18T06:08:08;2.88;;;1.10;;
83125;SDS011;73488;47.234;-1.540;2023-11-18T06:10:38;1.90;;;0.60;;
83125;SDS011;73488;47.234;-1.540;2023-11-18T06:13:03;3.58;;;1.48;;
83125;SDS011;73488;47.234;-1.540;2023-11-18T06:15:29;2.85;;;1.10;;
83125;SDS011;73488;47.234;-1.540;2023-11-18T06:18:14;3.47;;;0.90;;
83125;SDS011;73488;47.234;-1.540;2023-11-18T06:20:40;1.88;;;0.70;;
83125;SDS011;73488;47.234;-1.540;2023-11-18T06:23:05;2.55;;;0.73;;
83125;SDS011;73488;47.234;-1.540;2023-11-18T06:25:31;1.73;;;0.73;;
83125;SDS011;73488;47.234;-1.540;2023-11-18T06:27:57;2.58;;;0.60;;
83125;SDS011;73488;47.234;-1.540;2023-11-18T06:30:23;1.95;;;0.65;;
83125;SDS011;73488;47.234;-1.540;2023-11-18T06:32:48;3.38;;;0.85;;
83125;SDS011;73488;47.234;-1.540;2023-11-18T06:35:19;1.95;;;1.25;;
83125;SDS011;73488;47.234;-1.540;2023-11-18T06:37:46;3.47;;;0.80;;
83125;SDS011;73488;47.234;-1.540;2023-11-18T06:40:38;4.88;;;0.93;;
83125;SDS011;73488;47.234;-1.540;2023-11-18T06:43:03;3.63;;;0.82;;
83125;SDS011;73488;47.234;-1.540;2023-11-18T06:45:42;1.20;;;0.60;;
83125;SDS011;73488;47.234;-1.540;2023-11-18T06:48:13;1.65;;;0.60;;
83125;SDS011;73488;47.234;-1.540;2023-11-18T06:50:54;3.17;;;0.75;;
83125;SDS011;73488;47.234;-1.540;2023-11-18T06:53:20;5.60;;;0.98;;
83125;SDS011;73488;47.234;-1.540;2023-11-18T06:55:48;3.08;;;0.60;;
83125;SDS011;73488;47.234;-1.540;2023-11-18T06:58:14;1.65;;;0.68;;
83125;SDS011;73488;47.234;-1.540;2023-11-18T07:00:41;3.78;;;0.80;;
83125;SDS011;73488;47.234;-1.540;2023-11-18T07:03:07;3.55;;;0.90;;
83125;SDS011;73488;47.234;-1.540;2023-11-18T07:05:51;3.47;;;0.80;;
83125;SDS011;73488;47.234;-1.540;2023-11-18T07:08:16;2.35;;;1.17;;
83125;SDS011;73488;47.234;-1.540;2023-11-18T07:11:43;3.05;;;0.65;;
83125;SDS011;73488;47.234;-1.540;2023-11-18T07:15:07;2.72;;;1.02;;
83125;SDS011;73488;47.234;-1.540;2023-11-18T07:18:34;4.88;;;0.80;;
83125;SDS011;73488;47.234;-1.540;2023-11-18T07:21:58;1.83;;;1.02;;
83125;SDS011;73488;47.234;-1.540;2023-11-18T07:24:35;2.92;;;0.85;;
83125;SDS011;73488;47.234;-1.540;2023-11-18T07:27:59;2.33;;;0.52;;
83125;SDS011;73488;47.234;-1.540;2023-11-18T07:31:23;2.38;;;0.85;;
83125;SDS011;73488;47.234;-1.540;2023-11-18T07:33:51;1.70;;;0.80;;
83125;SDS011;73488;47.234;-1.540;2023-11-18T07:37:15;3.47;;;0.85;;
83125;SDS011;73488;47.234;-1.540;2023-11-18T07:40:45;6.70;;;1.20;;
83125;SDS011;73488;47.234;-1.540;2023-11-18T07:43:21;3.42;;;0.85;;
83125;SDS011;73488;47.234;-1.540;2023-11-18T07:46:06;4.40;;;0.80;;
83125;SDS011;73488;47.234;-1.540;2023-11-18T07:49:23;4.97;;;0.82;;
83125;SDS011;73488;47.234;-1.540;2023-11-18T07:51:51;2.55;;;0.88;;
83125;SDS011;73488;47.234;-1.540;2023-11-18T07:54:16;5.97;;;1.42;;
83125;SDS011;73488;47.234;-1.540;2023-11-18T07:57:03;3.95;;;0.80;;
83125;SDS011;73488;47.234;-1.540;2023-11-18T07:59:35;2.45;;;0.50;;
83125;SDS011;73488;47.234;-1.540;2023-11-18T08:03:00;2.28;;;1.08;;
83125;SDS011;73488;47.234;-1.540;2023-11-18T08:05:42;3.40;;;0.90;;
83125;SDS011;73488;47.234;-1.540;2023-11-18T08:08:46;4.15;;;1.05;;
83125;SDS011;73488;47.234;-1.540;2023-11-18T08:12:07;5.15;;;1.30;;
83125;SDS011;73488;47.234;-1.540;2023-11-18T08:15:34;4.72;;;1.10;;
83125;SDS011;73488;47.234;-1.540;2023-11-18T08:18:02;3.00;;;0.73;;
83125;SDS011;73488;47.234;-1.540;2023-11-18T08:20:29;5.82;;;1.20;;
83125;SDS011;73488;47.234;-1.540;2023-11-18T08:23:28;5.45;;;1.30;;
83125;SDS011;73488;47.234;-1.540;2023-11-18T08:26:51;5.50;;;1.17;;
83125;SDS011;73488;47.234;-1.540;2023-11-18T08:30:15;4.15;;;1.00;;
83125;SDS011;73488;47.234;-1.540;2023-11-18T08:33:40;5.15;;;1.52;;
83125;SDS011;73488;47.234;-1.540;2023-11-18T08:37:05;9.00;;;1.23;;
83125;SDS011;73488;47.234;-1.540;2023-11-18T08:40:32;4.78;;;1.30;;
83125;SDS011;73488;47.234;-1.540;2023-11-18T08:43:37;10.20;;;1.00;;
83125;SDS011;73488;47.234;-1.540;2023-11-18T08:47:03;6.22;;;1.27;;
83125;SDS011;73488;47.234;-1.540;2023-11-18T08:50:32;7.15;;;1.35;;
83125;SDS011;73488;47.234;-1.540;2023-11-18T08:53:58;5.18;;;1.02;;
83125;SDS011;73488;47.234;-1.540;2023-11-18T08:57:06;4.95;;;1.25;;
83125;SDS011;73488;47.234;-1.540;2023-11-18T09:00:27;7.47;;;1.67;;
83125;SDS011;73488;47.234;-1.540;2023-11-18T09:03:53;9.77;;;1.10;;
83125;SDS011;73488;47.234;-1.540;2023-11-18T09:06:45;6.30;;;1.20;;
83125;SDS011;73488;47.234;-1.540;2023-11-18T09:09:13;5.00;;;1.00;;
83125;SDS011;73488;47.234;-1.540;2023-11-18T09:11:40;6.55;;;1.15;;
83125;SDS011;73488;47.234;-1.540;2023-11-18T09:14:14;9.18;;;1.40;;
83125;SDS011;73488;47.234;-1.540;2023-11-18T09:16:56;5.95;;;1.00;;
83125;SDS011;73488;47.234;-1.540;2023-11-18T09:20:11;5.70;;;2.17;;
83125;SDS011;73488;47.234;-1.540;2023-11-18T09:22:36;6.00;;;1.10;;
83125;SDS011;73488;47.234;-1.540;2023-11-18T09:25:02;5.18;;;1.00;;
83125;SDS011;73488;47.234;-1.540;2023-11-18T09:27:47;5.18;;;1.35;;
83125;SDS011;73488;47.234;-1.540;2023-11-18T09:30:18;5.80;;;1.73;;
83125;SDS011;73488;47.234;-1.540;2023-11-18T09:32:49;5.35;;;1.15;;
83125;SDS011;73488;47.234;-1.540;2023-11-18T09:35:16;4.47;;;1.05;;
83125;SDS011;73488;47.234;-1.540;2023-11-18T09:37:44;4.30;;;1.48;;
83125;SDS011;73488;47.234;-1.540;2023-11-18T09:40:14;6.45;;;1.13;;
83125;SDS011;73488;47.234;-1.540;2023-11-18T09:42:52;4.43;;;1.00;;
83125;SDS011;73488;47.234;-1.540;2023-11-18T09:45:23;4.30;;;1.10;;
83125;SDS011;73488;47.234;-1.540;2023-11-18T09:48:02;6.32;;;1.23;;
83125;SDS011;73488;47.234;-1.540;2023-11-18T09:50:32;5.60;;;1.10;;
83125;SDS011;73488;47.234;-1.540;2023-11-18T09:52:58;4.60;;;1.00;;
83125;SDS011;73488;47.234;-1.540;2023-11-18T09:56:05;4.75;;;1.13;;
83125;SDS011;73488;47.234;-1.540;2023-11-18T10:03:07;10.02;;;1.35;;
83125;SDS011;73488;47.234;-1.540;2023-11-18T10:06:32;4.50;;;0.90;;
83125;SDS011;73488;47.234;-1.540;2023-11-18T10:10:00;4.05;;;1.20;;
83125;SDS011;73488;47.234;-1.540;2023-11-18T10:13:33;3.75;;;1.00;;
83125;SDS011;73488;47.234;-1.540;2023-11-18T10:17:07;3.63;;;1.08;;
83125;SDS011;73488;47.234;-1.540;2023-11-18T10:20:47;4.75;;;1.35;;
83125;SDS011;73488;47.234;-1.540;2023-11-18T10:24:14;1.92;;;0.85;;
83125;SDS011;73488;47.234;-1.540;2023-11-18T10:26:53;4.22;;;1.20;;
83125;SDS011;73488;47.234;-1.540;2023-11-18T10:29:34;5.75;;;1.25;;
83125;SDS011;73488;47.234;-1.540;2023-11-18T10:32:06;4.97;;;1.27;;
83125;SDS011;73488;47.234;-1.540;2023-11-18T10:34:34;5.60;;;1.23;;
83125;SDS011;73488;47.234;-1.540;2023-11-18T10:38:01;5.32;;;1.55;;
83125;SDS011;73488;47.234;-1.540;2023-11-18T10:41:25;6.70;;;1.02;;
83125;SDS011;73488;47.234;-1.540;2023-11-18T10:44:08;4.22;;;1.27;;
83125;SDS011;73488;47.234;-1.540;2023-11-18T10:46:53;8.40;;;1.50;;
83125;SDS011;73488;47.234;-1.540;2023-11-18T10:49:39;8.15;;;1.35;;
83125;SDS011;73488;47.234;-1.540;2023-11-18T10:52:08;7.30;;;1.20;;
83125;SDS011;73488;47.234;-1.540;2023-11-18T10:54:51;5.85;;;1.20;;
83125;SDS011;73488;47.234;-1.540;2023-11-18T10:58:15;8.32;;;1.20;;
83125;SDS011;73488;47.234;-1.540;2023-11-18T11:01:44;9.60;;;1.45;;
83125;SDS011;73488;47.234;-1.540;2023-11-18T11:05:08;10.50;;;1.58;;
83125;SDS011;73488;47.234;-1.540;2023-11-18T11:08:42;11.60;;;1.75;;
83125;SDS011;73488;47.234;-1.540;2023-11-18T11:12:10;4.68;;;1.50;;
83125;SDS011;73488;47.234;-1.540;2023-11-18T11:15:45;8.82;;;2.30;;
83125;SDS011;73488;47.234;-1.540;2023-11-18T11:19:20;9.88;;;2.00;;
83125;SDS011;73488;47.234;-1.540;2023-11-18T11:23:05;11.18;;;1.52;;
83125;SDS011;73488;47.234;-1.540;2023-11-18T11:26:41;14.20;;;2.25;;
83125;SDS011;73488;47.234;-1.540;2023-11-18T11:30:23;8.60;;;1.95;;
83125;SDS011;73488;47.234;-1.540;2023-11-18T11:33:58;8.68;;;1.80;;
83125;SDS011;73488;47.234;-1.540;2023-11-18T11:37:33;8.77;;;1.77;;
83125;SDS011;73488;47.234;-1.540;2023-11-18T11:40:57;9.48;;;2.15;;
83125;SDS011;73488;47.234;-1.540;2023-11-18T11:44:24;6.90;;;2.10;;
83125;SDS011;73488;47.234;-1.540;2023-11-18T11:47:53;6.80;;;1.73;;
83125;SDS011;73488;47.234;-1.540;2023-11-18T11:51:26;8.25;;;1.80;;
83125;SDS011;73488;47.234;-1.540;2023-11-18T11:55:01;13.75;;;2.40;;
83125;SDS011;73488;47.234;-1.540;2023-11-18T11:58:35;11.43;;;2.03;;
83125;SDS011;73488;47.234;-1.540;2023-11-18T12:02:01;9.45;;;2.55;;
83125;SDS011;73488;47.234;-1.540;2023-11-18T12:05:29;10.25;;;2.63;;
83125;SDS011;73488;47.234;-1.540;2023-11-18T12:08:53;12.27;;;1.77;;
83125;SDS011;73488;47.234;-1.540;2023-11-18T12:12:25;10.23;;;2.20;;
83125;SDS011;73488;47.234;-1.540;2023-11-18T12:15:54;8.63;;;2.13;;
83125;SDS011;73488;47.234;-1.540;2023-11-18T12:19:36;8.13;;;2.08;;
83125;SDS011;73488;47.234;-1.540;2023-11-18T12:23:07;8.25;;;2.42;;
83125;SDS011;73488;47.234;-1.540;2023-11-18T12:26:43;8.48;;;2.75;;
83125;SDS011;73488;47.234;-1.540;2023-11-18T12:33:21;7.35;;;1.52;;
83125;SDS011;73488;47.234;-1.540;2023-11-18T12:37:11;6.28;;;2.10;;
83125;SDS011;73488;47.234;-1.540;2023-11-18T12:41:00;5.88;;;2.05;;
83125;SDS011;73488;47.234;-1.540;2023-11-18T12:47:17;9.50;;;2.67;;
83125;SDS011;73488;47.234;-1.540;2023-11-18T12:49:53;9.98;;;2.15;;
83125;SDS011;73488;47.234;-1.540;2023-11-18T12:52:22;8.88;;;2.10;;
83125;SDS011;73488;47.234;-1.540;2023-11-18T12:54:55;9.52;;;2.08;;
83125;SDS011;73488;47.234;-1.540;2023-11-18T12:57:27;8.48;;;2.17;;
83125;SDS011;73488;47.234;-1.540;2023-11-18T13:00:03;9.85;;;2.22;;
83125;SDS011;73488;47.234;-1.540;2023-11-18T13:02:31;17.13;;;2.67;;
83125;SDS011;73488;47.234;-1.540;2023-11-18T13:04:57;10.30;;;2.00;;
83125;SDS011;73488;47.234;-1.540;2023-11-18T13:08:21;10.05;;;2.42;;
83125;SDS011;73488;47.234;-1.540;2023-11-18T13:15:25;15.05;;;2.08;;
83125;SDS011;73488;47.234;-1.540;2023-11-18T13:18:50;18.27;;;3.28;;
83125;SDS011;73488;47.234;-1.540;2023-11-18T13:22:19;14.40;;;2.42;;
83125;SDS011;73488;47.234;-1.540;2023-11-18T13:25:43;18.02;;;3.22;;
83125;SDS011;73488;47.234;-1.540;2023-11-18T13:29:08;22.92;;;3.30;;
83125;SDS011;73488;47.234;-1.540;2023-11-18T13:32:39;24.13;;;3.60;;
83125;SDS011;73488;47.234;-1.540;2023-11-18T13:36:04;25.42;;;3.10;;
83125;SDS011;73488;47.234;-1.540;2023-11-18T13:39:32;26.88;;;2.70;;
83125;SDS011;73488;47.234;-1.540;2023-11-18T13:43:12;18.33;;;2.80;;
83125;SDS011;73488;47.234;-1.540;2023-11-18T13:46:30;18.95;;;2.60;;
83125;SDS011;73488;47.234;-1.540;2023-11-18T13:49:36;22.95;;;2.97;;
83125;SDS011;73488;47.234;-1.540;2023-11-18T13:53:03;16.35;;;2.83;;
83125;SDS011;73488;47.234;-1.540;2023-11-18T13:55:35;25.05;;;3.00;;
83125;SDS011;73488;47.234;-1.540;2023-11-18T13:58:25;24.38;;;3.50;;
83125;SDS011;73488;47.234;-1.540;2023-11-18T14:01:35;17.85;;;3.30;;
83125;SDS011;73488;47.234;-1.540;2023-11-18T14:05:01;23.20;;;2.88;;
83125;SDS011;73488;47.234;-1.540;2023-11-18T14:07:54;24.00;;;3.50;;
83125;SDS011;73488;47.234;-1.540;2023-11-18T14:10:34;17.00;;;2.90;;
83125;SDS011;73488;47.234;-1.540;2023-11-18T14:13:06;16.50;;;2.95;;
83125;SDS011;73488;47.234;-1.540;2023-11-18T14:15:37;17.45;;;2.72;;
83125;SDS011;73488;47.234;-1.540;2023-11-18T14:18:07;12.40;;;2.78;;
83125;SDS011;73488;47.234;-1.540;2023-11-18T14:20:34;15.13;;;2.20;;
83125;SDS011;73488;47.234;-1.540;2023-11-18T14:23:00;14.73;;;2.83;;
83125;SDS011;73488;47.234;-1.540;2023-11-18T14:25:28;12.90;;;2.05;;
83125;SDS011;73488;47.234;-1.540;2023-11-18T14:27:54;18.77;;;2.83;;
83125;SDS011;73488;47.234;-1.540;2023-11-18T14:30:19;13.15;;;2.15;;
83125;SDS011;73488;47.234;-1.540;2023-11-18T14:32:45;15.73;;;2.45;;
83125;SDS011;73488;47.234;-1.540;2023-11-18T14:35:14;11.70;;;2.25;;
83125;SDS011;73488;47.234;-1.540;2023-11-18T14:37:42;14.38;;;2.63;;
83125;SDS011;73488;47.234;-1.540;2023-11-18T14:40:11;12.90;;;2.60;;
83125;SDS011;73488;47.234;-1.540;2023-11-18T14:42:41;15.38;;;3.00;;
83125;SDS011;73488;47.234;-1.540;2023-11-18T14:45:08;10.32;;;2.15;;
83125;SDS011;73488;47.234;-1.540;2023-11-18T14:47:34;10.45;;;2.20;;
83125;SDS011;73488;47.234;-1.540;2023-11-18T14:50:00;14.32;;;2.60;;
83125;SDS011;73488;47.234;-1.540;2023-11-18T14:52:27;8.93;;;2.67;;
83125;SDS011;73488;47.234;-1.540;2023-11-18T14:54:52;6.97;;;2.13;;
83125;SDS011;73488;47.234;-1.540;2023-11-18T14:57:17;12.02;;;2.40;;
83125;SDS011;73488;47.234;-1.540;2023-11-18T14:59:44;9.88;;;1.77;;
83125;SDS011;73488;47.234;-1.540;2023-11-18T15:02:09;7.13;;;1.77;;
83125;SDS011;73488;47.234;-1.540;2023-11-18T15:04:35;11.82;;;2.03;;
83125;SDS011;73488;47.234;-1.540;2023-11-18T15:07:01;8.00;;;1.58;;
83125;SDS011;73488;47.234;-1.540;2023-11-18T15:09:26;8.52;;;2.83;;
83125;SDS011;73488;47.234;-1.540;2023-11-18T15:11:56;8.40;;;1.58;;
83125;SDS011;73488;47.234;-1.540;2023-11-18T15:14:23;6.60;;;1.75;;
83125;SDS011;73488;47.234;-1.540;2023-11-18T15:16:50;5.22;;;1.40;;
83125;SDS011;73488;47.234;-1.540;2023-11-18T15:19:15;7.15;;;1.77;;
83125;SDS011;73488;47.234;-1.540;2023-11-18T15:21:41;8.70;;;1.75;;
83125;SDS011;73488;47.234;-1.540;2023-11-18T15:24:06;8.95;;;2.17;;
83125;SDS011;73488;47.234;-1.540;2023-11-18T15:26:34;7.80;;;1.60;;
83125;SDS011;73488;47.234;-1.540;2023-11-18T15:29:01;8.25;;;1.90;;
83125;SDS011;73488;47.234;-1.540;2023-11-18T15:31:28;8.63;;;1.83;;
83125;SDS011;73488;47.234;-1.540;2023-11-18T15:33:54;9.40;;;1.55;;
83125;SDS011;73488;47.234;-1.540;2023-11-18T15:36:22;4.80;;;2.22;;
83125;SDS011;73488;47.234;-1.540;2023-11-18T15:38:47;5.55;;;1.80;;
83125;SDS011;73488;47.234;-1.540;2023-11-18T15:41:13;6.57;;;1.65;;
83125;SDS011;73488;47.234;-1.540;2023-11-18T15:43:38;5.70;;;1.63;;
83125;SDS011;73488;47.234;-1.540;2023-11-18T15:46:03;5.13;;;1.65;;
83125;SDS011;73488;47.234;-1.540;2023-11-18T15:48:31;4.30;;;1.48;;
83125;SDS011;73488;47.234;-1.540;2023-11-18T15:50:57;5.60;;;1.80;;
83125;SDS011;73488;47.234;-1.540;2023-11-18T15:53:24;7.10;;;2.03;;
83125;SDS011;73488;47.234;-1.540;2023-11-18T15:55:49;4.20;;;2.08;;
83125;SDS011;73488;47.234;-1.540;2023-11-18T15:58:15;6.13;;;1.30;;
83125;SDS011;73488;47.234;-1.540;2023-11-18T16:00:43;5.55;;;2.03;;
83125;SDS011;73488;47.234;-1.540;2023-11-18T16:03:09;5.70;;;1.48;;
83125;SDS011;73488;47.234;-1.540;2023-11-18T16:05:34;5.28;;;1.40;;
83125;SDS011;73488;47.234;-1.540;2023-11-18T16:08:00;6.97;;;1.50;;
83125;SDS011;73488;47.234;-1.540;2023-11-18T16:10:26;4.00;;;1.30;;
83125;SDS011;73488;47.234;-1.540;2023-11-18T16:15:22;4.15;;;1.35;;
83125;SDS011;73488;47.234;-1.540;2023-11-18T16:17:49;4.78;;;1.60;;
83125;SDS011;73488;47.234;-1.540;2023-11-18T16:20:16;4.07;;;1.20;;
83125;SDS011;73488;47.234;-1.540;2023-11-18T16:22:43;2.92;;;1.40;;
83125;SDS011;73488;47.234;-1.540;2023-11-18T16:25:16;3.72;;;1.60;;
83125;SDS011;73488;47.234;-1.540;2023-11-18T16:27:48;7.57;;;1.30;;
83125;SDS011;73488;47.234;-1.540;2023-11-18T16:30:15;5.03;;;1.73;;
83125;SDS011;73488;47.234;-1.540;2023-11-18T16:32:42;5.85;;;1.83;;
83125;SDS011;73488;47.234;-1.540;2023-11-18T16:35:08;5.03;;;1.58;;
83125;SDS011;73488;47.234;-1.540;2023-11-18T16:40:05;5.15;;;1.70;;
83125;SDS011;73488;47.234;-1.540;2023-11-18T16:42:31;3.80;;;1.30;;
83125;SDS011;73488;47.234;-1.540;2023-11-18T16:44:57;3.88;;;1.50;;
83125;SDS011;73488;47.234;-1.540;2023-11-18T16:47:24;4.05;;;1.20;;
83125;SDS011;73488;47.234;-1.540;2023-11-18T16:49:50;4.20;;;1.00;;
83125;SDS011;73488;47.234;-1.540;2023-11-18T16:52:16;4.82;;;1.50;;
83125;SDS011;73488;47.234;-1.540;2023-11-18T16:54:42;2.53;;;1.10;;
83125;SDS011;73488;47.234;-1.540;2023-11-18T16:57:08;2.92;;;1.25;;
83125;SDS011;73488;47.234;-1.540;2023-11-18T16:59:33;6.53;;;1.63;;
83125;SDS011;73488;47.234;-1.540;2023-11-18T17:01:59;2.28;;;1.33;;
83125;SDS011;73488;47.234;-1.540;2023-11-18T17:04:26;6.00;;;1.45;;
83125;SDS011;73488;47.234;-1.540;2023-11-18T17:06:52;3.58;;;1.50;;
83125;SDS011;73488;47.234;-1.540;2023-11-18T17:09:17;3.40;;;1.10;;
83125;SDS011;73488;47.234;-1.540;2023-11-18T17:11:42;4.32;;;1.58;;
83125;SDS011;73488;47.234;-1.540;2023-11-18T17:14:08;4.65;;;1.35;;
83125;SDS011;73488;47.234;-1.540;2023-11-18T17:16:34;4.05;;;1.25;;
83125;SDS011;73488;47.234;-1.540;2023-11-18T17:18:59;3.83;;;1.48;;
83125;SDS011;73488;47.234;-1.540;2023-11-18T17:21:25;2.75;;;1.25;;